Time;durP1;ratioP1;P1;durP2;ratioP2;P2;SDS_P1;SDS_P2;PMS_P1;PMS_P2;Temp;Humidity;BMP_temperature;BMP_pressure;BME280_temperature;BME280_humidity;BME280_pressure;Samples;Min_cycle;Max_cycle;Signal;HPM_P1;HPM_P2
2022/03/24 00:00:35;;;;;;;64.22;33.65;;;;;;;2.43;68.84;101947.78;5074260;28;20154;-63
2022/03/24 00:03:00;;;;;;;56.30;31.98;;;;;;;2.39;68.90;101935.47;5072581;28;20132;-63
2022/03/24 00:05:26;;;;;;;56.67;32.50;;;;;;;2.36;68.87;101940.59;5074195;28;20115;-63
2022/03/24 00:07:51;;;;;;;55.70;31.13;;;;;;;2.33;68.92;101939.59;5073416;28;20435;-63
2022/03/24 00:10:17;;;;;;;57.05;30.77;;;;;;;2.35;68.98;101932.72;5073688;28;20094;-64
2022/03/24 00:12:43;;;;;;;58.83;32.80;;;;;;;2.41;68.75;101935.56;5074539;28;20036;-62
2022/03/24 00:15:08;;;;;;;58.85;32.58;;;;;;;2.41;68.57;101932.97;5073879;28;20024;-63
2022/03/24 00:17:34;;;;;;;57.75;31.88;;;;;;;2.38;68.67;101930.25;5072496;28;20033;-63
2022/03/24 00:20:00;;;;;;;54.50;30.75;;;;;;;2.41;68.50;101926.06;5074290;28;20077;-63
2022/03/24 00:22:26;;;;;;;47.00;27.27;;;;;;;2.40;68.49;101926.03;5072401;28;20043;-63
2022/03/24 00:24:52;;;;;;;55.95;30.35;;;;;;;2.42;68.50;101924.34;5074027;28;20028;-64
2022/03/24 00:27:17;;;;;;;55.35;30.85;;;;;;;2.38;68.63;101917.28;5073851;28;20040;-63
2022/03/24 00:29:43;;;;;;;58.42;31.45;;;;;;;2.35;68.24;101906.78;5071701;28;20387;-63
2022/03/24 00:32:09;;;;;;;47.42;27.30;;;;;;;2.34;68.62;101923.19;5072827;28;20028;-63
2022/03/24 00:34:35;;;;;;;50.45;28.88;;;;;;;2.29;68.55;101919.56;5073429;28;20039;-63
2022/03/24 00:37:03;;;;;;;51.83;27.58;;;;;;;2.24;68.56;101919.38;5072546;28;20479;-63
2022/03/24 00:39:33;;;;;;;51.25;29.85;;;;;;;2.20;68.79;101927.88;5072148;28;20031;-63
2022/03/24 00:42:00;;;;;;;53.38;29.23;;;;;;;2.18;68.78;101917.44;5072373;28;20059;-63
2022/03/24 00:44:26;;;;;;;54.35;28.73;;;;;;;2.12;69.08;101917.22;5052416;28;20038;-63
2022/03/24 00:46:51;;;;;;;51.67;28.42;;;;;;;2.10;68.94;101916.25;5071766;28;20032;-63
2022/03/24 00:49:17;;;;;;;46.47;27.30;;;;;;;2.05;69.12;101910.03;5072251;28;20526;-63
2022/03/24 00:51:42;;;;;;;53.53;30.42;;;;;;;2.03;69.20;101918.56;5073346;28;20032;-63
2022/03/24 00:54:08;;;;;;;52.85;28.45;;;;;;;2.00;69.11;101919.34;5054992;28;20051;-63
2022/03/24 00:56:33;;;;;;;52.95;28.48;;;;;;;1.98;69.21;101910.63;5071472;28;20485;-63
2022/03/24 00:58:59;;;;;;;49.83;28.30;;;;;;;1.94;69.04;101914.81;5072346;28;20060;-63
2022/03/24 01:01:24;;;;;;;50.05;28.40;;;;;;;1.92;69.31;101915.59;5072964;28;20024;-63
2022/03/24 01:03:49;;;;;;;51.50;29.38;;;;;;;1.89;69.25;101915.47;5072942;28;20041;-63
2022/03/24 01:06:17;;;;;;;48.50;27.02;;;;;;;1.89;69.23;101915.47;5073226;28;20075;-63
2022/03/24 01:08:43;;;;;;;53.33;31.38;;;;;;;1.87;69.27;101917.09;5072857;28;20050;-63
2022/03/24 01:11:08;;;;;;;53.67;28.10;;;;;;;1.83;69.16;101915.22;5072736;28;20024;-63
2022/03/24 01:13:35;;;;;;;51.47;27.73;;;;;;;1.81;69.10;101915.19;5073418;28;20044;-63
2022/03/24 01:16:03;;;;;;;45.28;26.38;;;;;;;1.76;69.37;101913.25;5071335;28;20182;-63
2022/03/24 01:18:29;;;;;;;43.78;26.30;;;;;;;1.76;69.31;101918.44;5055742;28;20033;-63
2022/03/24 01:20:55;;;;;;;46.63;26.80;;;;;;;1.79;69.33;101919.41;5071943;28;20036;-63
2022/03/24 01:23:23;;;;;;;52.03;28.25;;;;;;;1.80;69.29;101920.31;5071325;28;20061;-63
2022/03/24 01:25:49;;;;;;;48.97;27.45;;;;;;;1.80;69.17;101913.41;5073011;28;20131;-64
2022/03/24 01:28:15;;;;;;;46.70;25.70;;;;;;;1.78;69.02;101919.34;5071254;28;20037;-63
2022/03/24 01:30:40;;;;;;;50.47;27.52;;;;;;;1.75;69.03;101909.75;5073047;28;20481;-63
2022/03/24 01:33:06;;;;;;;48.47;28.38;;;;;;;1.78;68.82;101911.56;5055609;28;20539;-63
2022/03/24 01:35:32;;;;;;;47.72;26.23;;;;;;;1.79;68.64;101892.59;5072651;28;20127;-63
2022/03/24 01:37:58;;;;;;;43.38;24.52;;;;;;;1.85;68.33;101898.03;5073171;28;20036;-63
2022/03/24 01:40:24;;;;;;;48.03;25.00;;;;;;;1.85;68.19;101892.84;5073105;28;20028;-63
2022/03/24 01:42:50;;;;;;;57.45;29.98;;;;;;;1.84;68.31;101896.28;5054824;28;20037;-63
2022/03/24 01:45:15;;;;;;;51.00;27.92;;;;;;;1.83;68.39;101895.38;5075970;28;20090;-63
2022/03/24 01:47:41;;;;;;;50.65;27.83;;;;;;;1.87;68.15;101896.38;5074965;28;20036;-62
2022/03/24 01:50:09;;;;;;;51.53;26.70;;;;;;;1.88;68.02;101892.97;5077149;28;20036;-63
2022/03/24 01:52:35;;;;;;;53.63;28.40;;;;;;;1.90;67.99;101883.53;5075368;28;20036;-63
2022/03/24 01:55:03;;;;;;;50.55;28.27;;;;;;;1.94;67.68;101891.47;5071802;28;20472;-63
2022/03/24 01:57:30;;;;;;;48.95;27.25;;;;;;;2.00;67.57;101890.84;5057839;28;20049;-63
2022/03/24 01:59:57;;;;;;;49.70;27.80;;;;;;;2.00;67.73;101887.38;5075137;28;20432;-63
2022/03/24 02:02:22;;;;;;;43.30;25.58;;;;;;;2.07;67.35;101885.03;5076738;28;20354;-63
2022/03/24 02:04:48;;;;;;;48.95;26.48;;;;;;;2.13;67.17;101886.97;5076766;28;20047;-63
2022/03/24 02:07:15;;;;;;;46.67;26.67;;;;;;;2.19;67.08;101885.50;5074555;28;20044;-63
2022/03/24 02:09:41;;;;;;;54.33;30.67;;;;;;;2.08;67.29;101881.63;5074896;28;20044;-66
2022/03/24 02:12:08;;;;;;;51.28;29.10;;;;;;;2.22;66.65;101883.00;5076317;28;20039;-63
2022/03/24 02:14:34;;;;;;;53.10;29.10;;;;;;;2.24;66.53;101879.59;5074760;28;20427;-64
2022/03/24 02:17:01;;;;;;;51.92;29.70;;;;;;;2.25;66.56;101876.16;5076221;28;20033;-64
2022/03/24 02:19:27;;;;;;;54.22;29.63;;;;;;;2.28;66.84;101878.88;5074625;28;20028;-65
2022/03/24 02:22:01;;;;;;;52.92;29.45;;;;;;;2.21;66.37;101878.66;5058337;28;20040;-63
2022/03/24 02:24:26;;;;;;;56.35;30.15;;;;;;;2.19;66.57;101879.41;5075544;28;20384;-63
2022/03/24 02:26:52;;;;;;;48.38;26.50;;;;;;;2.22;66.60;101880.41;5075449;28;20048;-63
2022/03/24 02:29:19;;;;;;;52.15;29.02;;;;;;;2.22;66.52;101875.22;5074697;28;20547;-64
2022/03/24 02:31:49;;;;;;;52.33;28.58;;;;;;;2.17;66.58;101881.06;5074176;28;20124;-63
2022/03/24 02:37:14;;;;;;;53.42;29.60;;;;;;;2.03;67.10;101872.78;5075187;28;20051;-67
2022/03/24 02:39:42;;;;;;;55.65;28.65;;;;;;;2.09;66.68;101877.31;5056066;28;20037;-63
2022/03/24 02:42:14;;;;;;;51.58;27.55;;;;;;;2.09;66.82;101861.78;5059010;28;20028;-63
2022/03/24 02:44:44;;;;;;;47.15;26.30;;;;;;;2.15;66.72;101865.44;5075074;28;20388;-63
2022/03/24 02:47:11;;;;;;;53.10;26.02;;;;;;;2.19;66.50;101866.44;5054238;28;20049;-63
2022/03/24 02:49:37;;;;;;;47.17;26.58;;;;;;;2.21;66.44;101873.47;5057635;28;20029;-63
2022/03/24 02:52:04;;;;;;;44.38;24.52;;;;;;;2.28;65.97;101871.09;5058039;28;20134;-63
2022/03/24 02:54:31;;;;;;;41.28;22.85;;;;;;;2.25;66.08;101866.69;5073522;28;20060;-64
2022/03/24 02:56:56;;;;;;;47.25;26.27;;;;;;;2.26;66.05;101864.97;5072965;28;20123;-64
2022/03/24 02:59:22;;;;;;;40.70;24.27;;;;;;;2.20;66.59;101868.22;5076351;28;20127;-63
2022/03/24 03:02:00;;;;;;;43.83;25.50;;;;;;;2.22;66.22;101863.97;5056159;28;20124;-64
2022/03/24 03:04:26;;;;;;;42.55;24.05;;;;;;;2.26;66.26;101871.03;5058107;28;20075;-63
2022/03/24 03:06:53;;;;;;;45.13;24.27;;;;;;;2.26;66.03;101864.97;5057331;28;20503;-63
2022/03/24 03:09:19;;;;;;;48.22;25.85;;;;;;;2.26;66.05;101871.03;5073763;28;20404;-63
2022/03/24 03:11:46;;;;;;;47.95;26.02;;;;;;;2.20;66.17;101876.88;5074368;28;20120;-63
2022/03/24 03:14:13;;;;;;;46.80;26.75;;;;;;;2.20;66.11;101863.94;5040299;28;20056;-63
2022/03/24 03:16:40;;;;;;;47.55;26.48;;;;;;;2.20;66.09;101873.41;5075142;28;20033;-63
2022/03/24 03:19:08;;;;;;;51.70;28.63;;;;;;;2.18;66.26;101864.69;5073943;28;20044;-63
2022/03/24 03:21:33;;;;;;;47.33;26.38;;;;;;;2.14;66.25;101878.38;5073771;28;20044;-63
2022/03/24 03:23:59;;;;;;;50.40;25.92;;;;;;;2.12;66.24;101873.13;5073701;28;20438;-63
2022/03/24 03:26:24;;;;;;;48.67;26.52;;;;;;;2.10;66.19;101874.78;5074606;28;20032;-63
2022/03/24 03:28:53;;;;;;;44.80;26.10;;;;;;;2.13;66.09;101869.72;5075483;28;20360;-63
2022/03/24 03:31:22;;;;;;;47.88;25.77;;;;;;;2.10;65.85;101872.19;5073688;28;20036;-63
2022/03/24 03:33:48;;;;;;;43.63;25.15;;;;;;;2.10;66.00;101873.91;5057159;28;20120;-63
2022/03/24 03:36:13;;;;;;;50.88;28.13;;;;;;;2.13;66.06;101869.72;5074572;28;20115;-63
2022/03/24 03:38:39;;;;;;;53.70;28.02;;;;;;;2.05;65.92;101873.72;5074472;28;20040;-64
2022/03/24 03:41:05;;;;;;;54.35;28.23;;;;;;;2.05;66.13;101873.72;5073629;28;20385;-64
2022/03/24 03:43:32;;;;;;;49.15;27.48;;;;;;;2.05;66.34;101884.09;5052971;28;20082;-63
2022/03/24 03:45:58;;;;;;;44.20;25.88;;;;;;;2.01;66.11;101878.75;5055111;28;20037;-63
2022/03/24 03:48:25;;;;;;;48.17;27.95;;;;;;;1.96;66.20;101881.19;5073613;28;20105;-63
2022/03/24 03:50:51;;;;;;;46.13;25.33;;;;;;;1.96;66.52;101881.19;5053190;28;20037;-63
2022/03/24 03:53:16;;;;;;;51.70;26.70;;;;;;;1.97;66.23;101882.94;5053453;28;20033;-63
2022/03/24 03:55:42;;;;;;;45.78;26.02;;;;;;;2.01;66.18;101884.81;5067209;28;20041;-63
2022/03/24 03:58:08;;;;;;;51.13;26.95;;;;;;;1.93;66.05;101878.47;5072954;28;20123;-63
2022/03/24 04:00:53;;;;;;;51.85;27.55;;;;;;;1.96;66.43;101876.00;5074044;28;20133;-63
2022/03/24 04:03:20;;;;;;;45.85;23.90;;;;;;;1.98;66.05;101879.50;5074592;28;20040;-63
2022/03/24 04:05:45;;;;;;;51.90;28.08;;;;;;;2.00;66.07;101883.06;5056336;28;20490;-64
2022/03/24 04:08:11;;;;;;;51.67;26.35;;;;;;;1.96;66.14;101876.88;5071837;28;20056;-63
2022/03/24 04:10:38;;;;;;;47.25;25.38;;;;;;;1.99;66.05;101876.09;5072886;28;20086;-65
2022/03/24 04:13:06;;;;;;;47.70;25.55;;;;;;;1.99;66.13;101876.09;5072604;28;20059;-63
2022/03/24 04:15:33;;;;;;;44.72;24.70;;;;;;;1.99;66.03;101881.28;5074059;28;20381;-63
2022/03/24 04:17:59;;;;;;;51.15;26.70;;;;;;;2.02;66.13;101876.22;5072084;28;20051;-63
2022/03/24 04:20:26;;;;;;;44.47;25.30;;;;;;;2.00;65.89;101872.69;5055864;28;20040;-64
2022/03/24 04:22:52;;;;;;;47.45;25.10;;;;;;;2.01;66.15;101871.84;5074126;28;20037;-63
2022/03/24 04:25:20;;;;;;;45.67;24.75;;;;;;;2.05;66.00;101871.13;5072390;28;20062;-63
2022/03/24 04:27:45;;;;;;;54.00;28.13;;;;;;;2.00;66.37;101862.31;5072839;28;20055;-63
2022/03/24 04:30:15;;;;;;;47.83;26.83;;;;;;;2.03;66.08;101867.59;5073058;28;20124;-63
2022/03/24 04:32:44;;;;;;;45.38;26.73;;;;;;;2.10;65.67;101869.59;5072902;28;20037;-63
2022/03/24 04:35:10;;;;;;;47.15;26.27;;;;;;;2.07;65.86;101863.41;5071606;28;20064;-63
2022/03/24 04:37:37;;;;;;;44.33;25.10;;;;;;;2.10;65.86;101863.53;5056679;28;20039;-63
2022/03/24 04:40:04;;;;;;;45.47;25.17;;;;;;;2.13;65.47;101864.53;5073165;28;20032;-63
2022/03/24 04:42:30;;;;;;;50.58;26.67;;;;;;;2.20;65.53;101861.31;5073664;28;20138;-62
2022/03/24 04:44:56;;;;;;;43.25;23.63;;;;;;;2.22;65.20;101861.38;5072357;28;20494;-62
2022/03/24 04:47:21;;;;;;;40.13;22.52;;;;;;;2.29;64.87;101870.25;5071745;28;20032;-63
2022/03/24 04:49:47;;;;;;;46.47;24.48;;;;;;;2.25;65.25;101865.81;5073551;28;20088;-65
2022/03/24 04:52:12;;;;;;;39.75;22.70;;;;;;;2.34;65.04;101872.19;5072977;28;20028;-65
2022/03/24 04:54:38;;;;;;;42.53;23.80;;;;;;;2.38;65.19;101865.41;5073712;28;20115;-64
2022/03/24 04:57:04;;;;;;;41.65;23.63;;;;;;;2.31;65.12;101866.00;5071587;28;20029;-64
2022/03/24 04:59:30;;;;;;;41.90;23.83;;;;;;;2.30;65.20;101869.44;5072746;28;20204;-64
2022/03/24 05:01:56;;;;;;;39.15;23.05;;;;;;;2.28;65.09;101856.41;5072839;28;20463;-64
2022/03/24 05:04:23;;;;;;;41.83;23.33;;;;;;;2.29;65.17;101862.50;5072340;28;20040;-64
2022/03/24 05:06:49;;;;;;;39.67;23.17;;;;;;;2.27;65.13;101865.00;5068707;28;20071;-64
2022/03/24 05:09:15;;;;;;;42.60;22.85;;;;;;;2.25;64.97;101863.19;5070348;28;20040;-64
2022/03/24 05:11:40;;;;;;;45.05;24.13;;;;;;;2.29;64.85;101858.19;5073492;28;20032;-64
2022/03/24 05:14:05;;;;;;;37.88;22.95;;;;;;;2.34;64.81;101858.34;5073288;28;20476;-64
2022/03/24 05:16:31;;;;;;;44.00;24.58;;;;;;;2.31;64.85;101856.50;5072035;28;20484;-65
2022/03/24 05:18:56;;;;;;;40.67;22.45;;;;;;;2.32;65.09;101853.09;5074310;28;20033;-64
2022/03/24 05:21:22;;;;;;;39.80;22.40;;;;;;;2.41;64.63;101852.53;5077252;28;20028;-65
2022/03/24 05:23:48;;;;;;;36.72;20.70;;;;;;;2.51;64.40;101856.31;5072509;28;20147;-64
2022/03/24 05:26:13;;;;;;;40.08;21.58;;;;;;;2.67;63.93;101853.41;5060573;28;20395;-66
2022/03/24 05:28:39;;;;;;;35.25;20.33;;;;;;;2.71;64.04;101856.19;5076746;28;20041;-65
2022/03/24 05:31:05;;;;;;;33.78;19.70;;;;;;;2.88;63.32;101848.09;5076990;28;20043;-65
2022/03/24 05:33:31;;;;;;;33.13;20.13;;;;;;;3.04;62.89;101849.47;5058663;28;20127;-65
2022/03/24 05:35:56;;;;;;;30.13;17.98;;;;;;;3.20;62.67;101852.59;5075494;28;20064;-64
2022/03/24 05:38:22;;;;;;;35.28;20.02;;;;;;;3.30;62.13;101847.69;5076847;28;20064;-63
2022/03/24 05:40:47;;;;;;;36.17;20.17;;;;;;;3.37;62.04;101854.84;5075479;28;20123;-65
2022/03/24 05:43:13;;;;;;;34.15;19.98;;;;;;;3.48;61.78;101845.69;5076941;28;20047;-65
2022/03/24 05:45:38;;;;;;;35.72;19.42;;;;;;;3.54;61.73;101853.63;5075082;28;20132;-62
2022/03/24 05:48:04;;;;;;;33.83;19.08;;;;;;;3.63;61.56;101853.94;5075756;28;20028;-64
2022/03/24 05:50:29;;;;;;;34.45;18.92;;;;;;;3.72;61.23;101852.44;5076796;28;20063;-63
2022/03/24 05:52:56;;;;;;;30.83;18.15;;;;;;;3.74;61.54;101855.97;5076258;28;20075;-63
2022/03/24 05:55:23;;;;;;;31.58;19.00;;;;;;;3.77;61.42;101845.66;5057847;28;20044;-64
2022/03/24 05:57:49;;;;;;;32.15;19.17;;;;;;;3.89;61.31;101840.81;5075097;28;20059;-63
2022/03/24 06:00:15;;;;;;;34.97;19.98;;;;;;;3.88;61.10;101839.94;5055803;28;20074;-63
2022/03/24 06:02:41;;;;;;;34.10;20.83;;;;;;;3.99;60.96;101852.34;5076517;28;20111;-63
2022/03/24 06:05:12;;;;;;;38.90;23.52;;;;;;;4.13;60.70;101845.81;5075079;28;20094;-63
2022/03/24 06:07:38;;;;;;;39.75;22.77;;;;;;;4.27;60.53;101843.59;5075214;28;20041;-63
2022/03/24 06:10:06;;;;;;;39.28;23.83;;;;;;;4.35;60.17;101842.06;5074854;28;20063;-62
2022/03/24 06:12:32;;;;;;;33.03;19.52;;;;;;;4.46;59.86;101848.47;5075269;28;20460;-62
2022/03/24 06:14:58;;;;;;;34.00;18.83;;;;;;;4.66;59.26;101847.25;5076109;28;20043;-63
2022/03/24 06:17:24;;;;;;;32.47;17.00;;;;;;;4.88;58.74;101850.44;5076288;28;20465;-63
2022/03/24 06:19:50;;;;;;;29.50;17.17;;;;;;;5.18;58.00;101845.06;5076060;28;20032;-62
2022/03/24 06:22:16;;;;;;;27.17;15.48;;;;;;;5.42;57.63;101847.34;5075003;28;20055;-62
2022/03/24 06:24:41;;;;;;;27.00;15.65;;;;;;;5.63;57.05;101847.84;5072559;28;20496;-63
2022/03/24 06:27:08;;;;;;;27.40;16.55;;;;;;;5.77;56.64;101852.47;5075031;28;20037;-62
2022/03/24 06:29:34;;;;;;;29.17;16.55;;;;;;;5.99;56.30;101849.50;5075459;28;20029;-63
2022/03/24 06:32:00;;;;;;;26.25;15.20;;;;;;;6.12;56.21;101846.28;5074731;28;20029;-62
2022/03/24 06:34:26;;;;;;;26.98;15.07;;;;;;;6.26;56.06;101858.72;5075173;28;20048;-63
2022/03/24 06:36:51;;;;;;;26.42;14.60;;;;;;;6.31;55.72;101851.88;5075707;28;20067;-64
2022/03/24 06:39:17;;;;;;;33.15;16.05;;;;;;;6.40;55.21;101854.66;5074102;28;20048;-62
2022/03/24 06:41:43;;;;;;;33.97;17.45;;;;;;;6.54;55.09;101853.19;5075773;28;20037;-63
2022/03/24 06:44:09;;;;;;;33.15;17.58;;;;;;;6.61;55.12;101846.34;5075927;28;20070;-63
2022/03/24 06:46:35;;;;;;;29.63;17.98;;;;;;;6.75;55.02;101851.81;5074610;28;20036;-63
2022/03/24 06:49:03;;;;;;;28.45;16.38;;;;;;;6.86;54.37;101850.25;5074754;28;20090;-62
2022/03/24 06:51:29;;;;;;;29.67;16.15;;;;;;;6.81;54.09;101849.28;5074727;28;20056;-63
2022/03/24 06:53:55;;;;;;;28.98;16.13;;;;;;;6.93;53.99;101851.25;5058060;28;20086;-62
2022/03/24 06:56:21;;;;;;;30.13;16.48;;;;;;;6.98;53.64;101847.88;5057716;28;20028;-63
2022/03/24 06:58:46;;;;;;;27.13;15.15;;;;;;;7.11;53.45;101856.78;5075394;28;20488;-63
2022/03/24 07:01:12;;;;;;;25.45;14.60;;;;;;;7.23;52.88;101858.72;5076012;28;20482;-63
2022/03/24 07:03:37;;;;;;;27.90;14.77;;;;;;;7.36;52.57;101864.13;5071903;28;20045;-64
2022/03/24 07:06:04;;;;;;;27.55;14.18;;;;;;;7.34;52.43;101860.63;5071222;28;20048;-66
2022/03/24 07:08:30;;;;;;;23.02;14.43;;;;;;;7.43;52.21;101862.50;5074087;28;20037;-62
2022/03/24 07:10:55;;;;;;;24.27;14.32;;;;;;;7.60;51.97;101854.88;5057753;28;20033;-62
2022/03/24 07:13:21;;;;;;;24.90;14.75;;;;;;;7.68;51.71;101861.09;5072513;28;20036;-63
2022/03/24 07:15:47;;;;;;;26.20;16.02;;;;;;;7.75;51.22;101862.97;5058939;28;20040;-63
2022/03/24 07:18:12;;;;;;;25.08;16.10;;;;;;;7.85;51.06;101862.19;5088135;28;20065;-63
2022/03/24 07:20:38;;;;;;;28.52;17.30;;;;;;;7.94;51.01;101858.84;5074781;28;20115;-63
2022/03/24 07:23:06;;;;;;;27.40;15.05;;;;;;;8.08;50.65;101862.50;5056933;28;20033;-66
2022/03/24 07:25:33;;;;;;;24.50;13.70;;;;;;;8.19;50.60;101861.75;5072962;28;20089;-63
2022/03/24 07:27:59;;;;;;;23.50;14.18;;;;;;;8.37;50.45;101856.75;5077258;28;20097;-63
2022/03/24 07:30:26;;;;;;;27.45;14.90;;;;;;;8.45;49.88;101855.09;5066575;28;20037;-64
2022/03/24 07:32:53;;;;;;;27.83;15.65;;;;;;;8.53;49.54;101852.56;5079865;28;20036;-63
2022/03/24 07:35:19;;;;;;;25.63;15.05;;;;;;;8.58;49.25;101851.75;5078845;28;20040;-63
2022/03/24 07:37:48;;;;;;;43.10;17.88;;;;;;;8.68;48.89;101857.06;5071391;28;20033;-63
2022/03/24 07:40:18;;;;;;;30.80;16.58;;;;;;;8.78;48.12;101853.69;5078704;28;20036;-63
2022/03/24 07:42:46;;;;;;;28.95;15.55;;;;;;;9.03;48.07;101863.50;5061879;28;20033;-63
2022/03/24 07:45:12;;;;;;;24.58;14.95;;;;;;;9.12;47.61;101855.72;5074561;28;20115;-64
2022/03/24 07:48:11;;;;;;;22.00;15.35;;;;;;;9.26;47.19;101855.81;5068728;28;20740;-63
2022/03/24 07:50:39;;;;;;;26.92;13.63;;;;;;;9.37;47.31;101861.13;5051490;28;20044;-63
2022/03/24 07:53:15;;;;;;;22.10;14.35;;;;;;;9.53;47.22;101862.97;5050880;28;20499;-63
2022/03/24 07:55:43;;;;;;;23.17;15.13;;;;;;;9.59;46.98;101868.28;5070402;28;20128;-63
2022/03/24 07:58:10;;;;;;;24.63;14.02;;;;;;;9.76;46.78;101867.50;5072437;28;20083;-63
2022/03/24 08:00:35;;;;;;;34.92;16.33;;;;;;;9.91;46.42;101875.44;5072364;28;20032;-64
2022/03/24 08:03:01;;;;;;;37.78;16.58;;;;;;;9.95;46.03;101869.34;5073098;28;20035;-63
2022/03/24 08:05:26;;;;;;;33.45;15.95;;;;;;;10.12;45.67;101870.28;5074182;28;20538;-63
2022/03/24 08:07:56;;;;;;;21.83;13.32;;;;;;;10.26;45.00;101866.88;5073003;28;20078;-63
2022/03/24 08:10:23;;;;;;;24.50;13.88;;;;;;;10.31;44.86;101859.88;5068384;28;20063;-64
2022/03/24 08:12:48;;;;;;;23.58;13.55;;;;;;;10.49;45.12;101865.19;5072881;28;20468;-63
2022/03/24 08:15:14;;;;;;;23.92;14.52;;;;;;;10.48;44.69;101868.69;5073336;28;20040;-63
2022/03/24 08:17:39;;;;;;;24.08;13.27;;;;;;;10.73;44.56;101860.84;5073335;28;20040;-64
2022/03/24 08:20:06;;;;;;;19.65;12.68;;;;;;;10.78;43.82;101859.97;5063510;28;20400;-63
2022/03/24 08:22:32;;;;;;;19.90;12.13;;;;;;;10.82;43.46;101874.00;5072183;28;20032;-65
2022/03/24 08:24:57;;;;;;;20.35;11.63;;;;;;;11.02;43.67;101866.13;5071794;28;20428;-63
2022/03/24 08:27:23;;;;;;;23.10;12.60;;;;;;;11.13;43.54;101861.75;5071712;28;20041;-64
2022/03/24 08:29:49;;;;;;;32.55;15.18;;;;;;;11.23;43.40;101859.97;5072790;28;20400;-63
2022/03/24 08:32:15;;;;;;;21.17;11.93;;;;;;;11.27;42.49;101867.00;5071762;28;20041;-64
2022/03/24 08:34:41;;;;;;;21.52;12.43;;;;;;;11.47;42.92;101859.06;5072792;28;20039;-63
2022/03/24 08:37:06;;;;;;;17.90;11.18;;;;;;;11.72;42.28;101865.16;5055388;28;20032;-63
2022/03/24 08:39:32;;;;;;;17.50;11.30;;;;;;;11.83;41.74;101852.88;5078197;28;20039;-64
2022/03/24 08:41:58;;;;;;;18.98;10.52;;;;;;;11.90;41.56;101854.59;5077648;28;20115;-63
2022/03/24 08:44:23;;;;;;;19.42;11.52;;;;;;;12.08;41.32;101857.13;5072995;28;20369;-63
2022/03/24 08:46:49;;;;;;;19.65;12.20;;;;;;;12.05;41.15;101859.81;5073114;28;20481;-63
2022/03/24 08:49:14;;;;;;;20.42;10.93;;;;;;;12.13;40.83;101856.25;5071197;28;20039;-63
2022/03/24 08:51:39;;;;;;;18.25;10.77;;;;;;;12.24;40.68;101857.06;5072265;28;20111;-63
2022/03/24 08:54:05;;;;;;;20.50;10.90;;;;;;;12.40;40.45;101856.09;5072575;28;20036;-63
2022/03/24 08:56:31;;;;;;;17.15;10.05;;;;;;;12.48;40.07;101849.03;5071883;28;20047;-64
2022/03/24 08:58:56;;;;;;;20.95;11.30;;;;;;;12.71;40.15;101855.91;5072735;28;20124;-63
2022/03/24 09:01:22;;;;;;;17.35;9.93;;;;;;;12.86;39.74;101861.09;5069964;28;20040;-64
2022/03/24 09:03:51;;;;;;;13.07;8.52;;;;;;;12.87;38.65;101861.97;5070645;28;20033;-64
2022/03/24 09:06:16;;;;;;;15.82;9.68;;;;;;;12.95;38.79;101866.28;5068384;28;20412;-65
2022/03/24 09:08:42;;;;;;;18.08;9.98;;;;;;;13.01;38.39;101866.25;5071812;28;20464;-65
2022/03/24 09:11:09;;;;;;;14.70;9.77;;;;;;;12.96;38.29;101877.72;5038916;28;20036;-64
2022/03/24 09:13:37;;;;;;;14.75;9.55;;;;;;;13.12;38.59;101870.53;5070739;28;20032;-65
2022/03/24 09:16:05;;;;;;;15.27;9.55;;;;;;;13.22;38.32;101874.88;5070519;28;20044;-66
2022/03/24 09:18:30;;;;;;;15.07;9.32;;;;;;;13.36;38.11;101865.06;5066670;28;20036;-66
2022/03/24 09:20:56;;;;;;;16.48;10.43;;;;;;;13.39;38.33;101862.41;5055826;28;20059;-65
2022/03/24 09:23:24;;;;;;;17.20;9.23;;;;;;;13.60;37.80;101860.44;5070924;28;20041;-64
2022/03/24 09:25:49;;;;;;;16.25;8.48;;;;;;;13.55;37.27;101865.78;5067028;28;20443;-65
2022/03/24 09:28:15;;;;;;;14.85;8.68;;;;;;;13.48;37.24;101861.44;5072469;28;20039;-64
2022/03/24 09:30:41;;;;;;;16.45;7.80;;;;;;;13.65;37.37;101858.66;5070828;28;20123;-65
2022/03/24 09:33:08;;;;;;;14.07;8.25;;;;;;;13.76;36.95;101856.72;5067483;28;20399;-65
2022/03/24 09:35:34;;;;;;;19.95;8.02;;;;;;;13.84;36.57;101861.94;5070139;28;20700;-65
2022/03/24 09:37:59;;;;;;;11.52;7.63;;;;;;;13.75;36.22;101861.16;5069444;28;20043;-65
2022/03/24 09:40:25;;;;;;;13.00;8.18;;;;;;;13.85;36.72;101858.41;5069199;28;20085;-65
2022/03/24 09:42:51;;;;;;;17.55;9.75;;;;;;;14.04;36.30;101862.56;5049453;28;20045;-72
2022/03/24 09:45:17;;;;;;;12.10;8.23;;;;;;;14.15;35.90;101865.94;5067737;28;20036;-66
2022/03/24 09:47:43;;;;;;;13.43;8.85;;;;;;;14.11;35.65;101858.09;5069465;28;20400;-64
2022/03/24 09:50:11;;;;;;;18.80;8.38;;;;;;;14.09;35.27;101867.81;5075113;28;20032;-64
2022/03/24 09:52:38;;;;;;;10.85;7.60;;;;;;;14.13;35.37;101864.25;5092707;28;20032;-68
2022/03/24 09:55:05;;;;;;;13.80;7.80;;;;;;;14.25;35.44;101867.59;5065224;28;20404;-64
2022/03/24 09:57:33;;;;;;;21.50;12.07;;;;;;;14.32;35.23;101871.00;5062054;28;20044;-64
2022/03/24 09:59:58;;;;;;;20.90;10.52;;;;;;;14.30;34.44;101867.53;5065192;28;20400;-67
2022/03/24 10:02:24;;;;;;;14.93;9.25;;;;;;;14.44;34.61;101870.88;5051658;28;20036;-64
2022/03/24 10:05:03;;;;;;;13.68;8.52;;;;;;;14.46;34.66;101874.34;5071979;28;20047;-65
2022/03/24 10:07:43;;;;;;;13.93;8.98;;;;;;;14.52;33.99;101861.09;5075424;28;20040;-65
2022/03/24 10:10:21;;;;;;;12.85;7.85;;;;;;;14.54;34.59;101853.97;5073508;28;20036;-65
2022/03/24 10:12:46;;;;;;;11.27;7.00;;;;;;;14.60;34.24;101852.13;5068221;28;20047;-65
2022/03/24 10:15:13;;;;;;;17.05;7.78;;;;;;;14.60;34.08;101853.03;5076014;28;20040;-66
2022/03/24 10:17:40;;;;;;;14.40;8.07;;;;;;;14.67;33.99;101854.66;5073176;28;20041;-65
2022/03/24 10:20:08;;;;;;;12.70;7.72;;;;;;;14.70;33.46;101853.75;5054870;28;20036;-65
2022/03/24 10:22:35;;;;;;;11.77;7.30;;;;;;;14.81;33.72;101853.59;5074620;28;20029;-66
2022/03/24 10:25:20;;;;;;;12.77;7.38;;;;;;;14.69;32.95;101846.72;5072041;28;20396;-65
2022/03/24 10:27:50;;;;;;;18.58;7.88;;;;;;;14.87;33.42;101842.91;5073715;28;20051;-65
2022/03/24 10:30:16;;;;;;;11.70;7.38;;;;;;;14.86;32.86;101849.09;5073271;28;20028;-65
2022/03/24 10:32:55;;;;;;;12.88;6.82;;;;;;;14.87;32.47;101848.19;5074357;28;20032;-65
2022/03/24 10:35:20;;;;;;;10.77;6.18;;;;;;;14.85;32.91;101858.81;5074717;28;20098;-65
2022/03/24 10:37:51;;;;;;;11.10;6.05;;;;;;;14.97;33.02;101848.03;5072855;28;20040;-64
2022/03/24 10:40:17;;;;;;;11.25;5.78;;;;;;;15.08;32.69;101844.31;5068253;28;20036;-65
2022/03/24 10:42:43;;;;;;;12.82;6.32;;;;;;;15.08;32.53;101844.31;5072159;28;20028;-63
2022/03/24 10:45:27;;;;;;;15.38;5.70;;;;;;;15.24;32.13;101845.78;5074478;28;20127;-63
2022/03/24 10:47:52;;;;;;;10.75;5.53;;;;;;;15.36;32.30;101845.59;5075617;28;20025;-63
2022/03/24 10:50:30;;;;;;;10.95;6.60;;;;;;;15.25;31.98;101851.06;5075777;28;20035;-64
2022/03/24 10:53:02;;;;;;;9.40;6.45;;;;;;;15.29;31.39;101841.31;5075689;28;20039;-62
2022/03/24 10:55:44;;;;;;;8.00;5.00;;;;;;;15.41;31.59;101835.78;5074269;28;20024;-63
2022/03/24 10:58:17;;;;;;;9.20;5.78;;;;;;;15.36;31.69;101850.00;5068742;28;20048;-63
2022/03/24 11:00:42;;;;;;;11.10;6.60;;;;;;;15.49;32.07;101849.75;5066965;28;20094;-64
2022/03/24 11:03:08;;;;;;;10.13;6.35;;;;;;;15.30;31.88;101832.47;5074801;28;20443;-64
2022/03/24 11:05:34;;;;;;;10.70;6.10;;;;;;;15.40;31.31;101844.63;5055428;28;20416;-64
2022/03/24 11:08:00;;;;;;;11.77;6.05;;;;;;;15.39;31.21;101829.63;5071560;28;20040;-64
2022/03/24 11:10:26;;;;;;;15.80;5.93;;;;;;;15.46;31.23;101831.25;5074653;28;20117;-64
2022/03/24 11:12:54;;;;;;;9.50;5.32;;;;;;;15.56;31.26;101841.69;5074062;28;20060;-65
2022/03/24 11:15:21;;;;;;;16.25;6.15;;;;;;;15.63;31.03;101835.38;5069137;28;20091;-64
2022/03/24 11:17:47;;;;;;;7.93;5.15;;;;;;;15.66;31.25;101822.09;5083500;28;20068;-65